Latest Weather Observations for Point Wilson

IDV60901

Issued at 6:41 am EST Wednesday 22 May 2019 (issued every 10 minutes, with the page automatically refreshed every 10 minutes)

About weather observations | Map of Melbourne area stations | Latest observations for Melbourne area | Other Formats
Station Details ID: 087166 Name: POINT WILSON Lat: -38.10 Lon: 144.54 Height: 18.0 m
Data from the previous 72 hours. | See also: Recent months at Point Wilson
Date/Time
EST
Temp
°C
App
Temp
°C
Dew
Point
°C
Rel
Hum
%
Delta-T
°C
Wind Press
QNH
hPa
Press
MSL
hPa
Rain since
9am
mm
Dir  Spd
km/h
Gust
km/h
Spd
kts
Gust
kts
22/06:30am - - - - - NNE 9 11 5 6 - - -
22/06:00am - - - - - NNE 7 7 4 4 - - -
22/05:30am - - - - - NNE 7 9 4 5 - - -
22/05:00am - - - - - N 6 7 3 4 - - -
22/04:30am - - - - - N 9 13 5 7 - - -
22/04:00am - - - - - N 7 11 4 6 - - -
22/03:30am - - - - - N 9 13 5 7 - - -
22/03:00am - - - - - N 22 24 12 13 - - -
22/02:30am - - - - - N 22 26 12 14 - - -
22/02:00am - - - - - N 22 24 12 13 - - -
22/01:30am - - - - - N 20 24 11 13 - - -
22/01:00am - - - - - N 20 24 11 13 - - -
22/12:30am - - - - - N 20 24 11 13 - - -
22/12:00am - - - - - N 22 24 12 13 - - -
 
Date/Time
EST
Temp
°C
App
Temp
°C
Dew
Point
°C
Rel
Hum
%
Delta-T
°C
Wind Press
QNH
hPa
Press
MSL
hPa
Rain since
9am
mm
Dir  Spd
km/h
Gust
km/h
Spd
kts
Gust
kts
21/11:30pm - - - - - N 20 24 11 13 - - -
21/11:00pm - - - - - N 22 24 12 13 - - -
21/10:30pm - - - - - N 24 26 13 14 - - -
21/10:00pm - - - - - N 20 24 11 13 - - -
21/09:30pm - - - - - N 19 20 10 11 - - -
21/09:00pm - - - - - NNE 19 20 10 11 - - -
21/08:30pm - - - - - NNE 17 19 9 10 - - -
21/08:00pm - - - - - N 13 13 7 7 - - -
21/07:30pm - - - - - NNW 11 13 6 7 - - -
21/07:00pm - - - - - N 15 17 8 9 - - -
21/06:30pm - - - - - N 11 11 6 6 - - -
21/06:00pm - - - - - N 11 13 6 7 - - -
21/05:30pm - - - - - NNW 11 11 6 6 - - -
21/05:00pm - - - - - NW 15 19 8 10 - - -
21/04:30pm - - - - - NNW 19 22 10 12 - - -
21/04:00pm - - - - - NNW 19 22 10 12 - - -
21/03:30pm - - - - - NW 24 28 13 15 - - -
21/03:00pm - - - - - NNW 20 24 11 13 - - -
21/02:30pm - - - - - NNW 19 22 10 12 - - -
21/02:00pm - - - - - WNW 24 30 13 16 - - -
21/01:30pm - - - - - WNW 24 28 13 15 - - -
21/01:00pm - - - - - NW 26 30 14 16 - - -
21/12:30pm - - - - - WNW 19 26 10 14 - - -
21/12:00pm - - - - - NNW 20 28 11 15 - - -
21/11:30am - - - - - NNW 17 22 9 12 - - -
21/11:00am - - - - - N 22 24 12 13 - - -
21/10:30am - - - - - N 20 24 11 13 - - -
21/10:00am - - - - - N 24 28 13 15 - - -
21/09:30am - - - - - N 26 30 14 16 - - -
21/09:00am - - - - - N 26 28 14 15 - - -
21/08:30am - - - - - N 24 28 13 15 - - -
21/08:00am - - - - - N 22 24 12 13 - - -
21/07:30am - - - - - N 26 30 14 16 - - -
21/07:00am - - - - - N 26 32 14 17 - - -
21/06:30am - - - - - N 24 28 13 15 - - -
21/06:00am - - - - - N 26 30 14 16 - - -
21/05:30am - - - - - NNE 26 30 14 16 - - -
21/05:00am - - - - - N 24 28 13 15 - - -
21/04:30am - - - - - N 22 24 12 13 - - -
21/04:00am - - - - - N 20 24 11 13 - - -
21/03:30am - - - - - N 19 20 10 11 - - -
21/03:00am - - - - - N 20 22 11 12 - - -
21/02:30am - - - - - NNW 19 20 10 11 - - -
21/02:00am - - - - - NNW 19 22 10 12 - - -
21/01:30am - - - - - NNW 19 22 10 12 - - -
21/01:00am - - - - - NNW 17 19 9 10 - - -
21/12:30am - - - - - NNW 17 19 9 10 - - -
21/12:00am - - - - - NW 20 22 11 12 - - -
 
Date/Time
EST
Temp
°C
App
Temp
°C
Dew
Point
°C
Rel
Hum
%
Delta-T
°C
Wind Press
QNH
hPa
Press
MSL
hPa
Rain since
9am
mm
Dir  Spd
km/h
Gust
km/h
Spd
kts
Gust
kts
20/11:30pm - - - - - NNW 15 19 8 10 - - -
20/11:00pm - - - - - WNW 13 17 7 9 - - -
20/10:30pm - - - - - NW 13 17 7 9 - - -
20/10:00pm - - - - - NW 15 17 8 9 - - -
20/09:30pm - - - - - WNW 15 17 8 9 - - -
20/09:00pm - - - - - WNW 13 19 7 10 - - -
20/08:30pm - - - - - W 11 13 6 7 - - -
20/08:00pm - - - - - N 13 15 7 8 - - -
20/07:30pm - - - - - NNW 15 17 8 9 - - -
20/07:00pm - - - - - N 22 24 12 13 - - -
20/06:30pm - - - - - N 22 24 12 13 - - -
20/06:00pm - - - - - N 22 24 12 13 - - -
20/05:30pm - - - - - N 24 28 13 15 - - -
20/05:00pm - - - - - N 26 30 14 16 - - -
20/04:30pm - - - - - N 28 30 15 16 - - -
20/04:00pm - - - - - N 26 32 14 17 - - -
20/03:30pm - - - - - N 30 35 16 19 - - -
20/03:00pm - - - - - N 33 39 18 21 - - -
20/02:30pm - - - - - N 37 43 20 23 - - -
20/02:00pm - - - - - N 37 43 20 23 - - -
20/01:30pm - - - - - N 39 44 21 24 - - -
20/01:00pm - - - - - N 35 43 19 23 - - -
20/12:30pm - - - - - NNE 22 28 12 15 - - -
20/12:00pm - - - - - NNE 17 20 9 11 - - -
20/11:30am - - - - - NNE 11 15 6 8 - - -
20/11:00am - - - - - NNE 17 19 9 10 - - -
20/10:30am - - - - - NNE 28 32 15 17 - - -
20/10:00am - - - - - N 30 35 16 19 - - -
20/09:30am - - - - - NNE 24 30 13 16 - - -
20/09:00am - - - - - NNE 30 37 16 20 - - -
20/08:30am - - - - - N 35 41 19 22 - - -
20/08:00am - - - - - NNE 24 26 13 14 - - -
20/07:30am - - - - - N 26 32 14 17 - - -
20/07:00am - - - - - NNE 17 22 9 12 - - -
20/06:30am - - - - - NNE 24 28 13 15 - - -
20/06:00am - - - - - ENE 22 26 12 14 - - -
20/05:30am - - - - - ENE 20 26 11 14 - - -
20/05:00am - - - - - NE 17 20 9 11 - - -
20/04:30am - - - - - ENE 20 24 11 13 - - -
20/04:00am - - - - - ENE 26 30 14 16 - - -
20/03:30am - - - - - ENE 32 33 17 18 - - -
20/03:00am - - - - - NE 28 32 15 17 - - -
20/02:30am - - - - - NE 26 30 14 16 - - -
20/02:00am - - - - - NNE 28 33 15 18 - - -
20/01:30am - - - - - ENE 19 22 10 12 - - -
20/01:00am - - - - - NE 26 30 14 16 - - -
20/12:30am - - - - - NE 28 30 15 16 - - -
20/12:00am - - - - - NE 30 35 16 19 - - -
 
Date/Time
EST
Temp
°C
App
Temp
°C
Dew
Point
°C
Rel
Hum
%
Delta-T
°C
Wind Press
QNH
hPa
Press
MSL
hPa
Rain since
9am
mm
Dir  Spd
km/h
Gust
km/h
Spd
kts
Gust
kts
19/11:30pm - - - - - NE 32 37 17 20 - - -
19/11:00pm - - - - - NE 33 39 18 21 - - -
19/10:30pm - - - - - NE 33 37 18 20 - - -
19/10:00pm - - - - - NNE 30 33 16 18 - - -
19/09:30pm - - - - - NE 32 35 17 19 - - -
19/09:00pm - - - - - NE 33 37 18 20 - - -
19/08:30pm - - - - - NE 32 35 17 19 - - -
19/08:00pm - - - - - NE 24 28 13 15 - - -
19/07:30pm - - - - - NNE 28 30 15 16 - - -
19/07:00pm - - - - - NE 28 32 15 17 - - -
19/06:30pm - - - - - NE 26 28 14 15 - - -
19/06:00pm - - - - - NE 22 24 12 13 - - -
19/05:30pm - - - - - NNE 24 28 13 15 - - -
19/05:00pm - - - - - NE 24 26 13 14 - - -
19/04:30pm - - - - - NE 22 26 12 14 - - -
19/04:00pm - - - - - NE 24 26 13 14 - - -
19/03:30pm - - - - - NE 24 26 13 14 - - -
19/03:00pm - - - - - NE 24 30 13 16 - - -
19/02:30pm - - - - - NNE 26 30 14 16 - - -
19/02:00pm - - - - - NNE 20 24 11 13 - - -
19/01:30pm - - - - - NNE 19 22 10 12 - - -
19/01:00pm - - - - - NE 15 19 8 10 - - -
19/12:30pm - - - - - ENE 20 20 11 11 - - -
19/12:00pm - - - - - E 20 22 11 12 - - -
19/11:30am - - - - - E 19 22 10 12 - - -
19/11:00am - - - - - ENE 20 22 11 12 - - -
19/10:30am - - - - - E 20 24 11 13 - - -
19/10:00am - - - - - E 24 26 13 14 - - -
19/09:30am - - - - - ENE 22 24 12 13 - - -
19/09:00am - - - - - ENE 22 24 12 13 - - -
19/08:30am - - - - - ENE 20 22 11 12 - - -
19/08:00am - - - - - ENE 17 19 9 10 - - -
19/07:30am - - - - - NE 13 15 7 8 - - -
19/07:00am - - - - - NE 15 17 8 9 - - -

Latest Capital City Observations: Canberra | Sydney | Melbourne | Brisbane | Adelaide | Perth | Hobart | Darwin

Other formats

Comma delimited format used in spreadsheet applications
http://www.bom.gov.au/fwo/IDV60901/IDV60901.94847.axf

JavaScript Object Notation format (JSON) in row-major order
http://www.bom.gov.au/fwo/IDV60901/IDV60901.94847.json

Data quality

Most of these data are generated automatically and are frequently updated. Quality checks on data are not normally performed. It is possible for incorrect values to appear. Refer to information at About Latest Weather Observations and please check the disclaimer before using these data.